createdAt,value
2023-03-26T00:01:21.174Z,100368.63
2023-03-26T00:03:53.557Z,100382.41
2023-03-26T00:06:33.808Z,100385.66
2023-03-26T00:09:00.551Z,100392.88
2023-03-26T00:11:29.394Z,100392.88
2023-03-26T00:13:57.811Z,100401.91
2023-03-26T00:16:28.729Z,100390.78
2023-03-26T00:18:55.887Z,100398.47
2023-03-26T00:21:28.984Z,100399.72
2023-03-26T00:24:04.681Z,100408.56
2023-03-26T00:26:34.012Z,100408.53
2023-03-26T00:29:01.030Z,100407.34
2023-03-26T00:31:27.731Z,100396.41
2023-03-26T00:33:57.758Z,100404.50
2023-03-26T00:36:26.712Z,100422.25
2023-03-26T00:38:54.299Z,100419.94
2023-03-26T00:41:26.196Z,100424.31
2023-03-26T00:43:59.740Z,100422.50
2023-03-26T00:46:28.255Z,100427.38
2023-03-26T00:48:58.632Z,100418.13
2023-03-26T00:51:25.969Z,100419.50
2023-03-26T00:53:52.843Z,100412.16
2023-03-26T00:56:19.634Z,100409.13
2023-03-26T00:58:47.536Z,100406.53
2023-03-26T01:01:20.746Z,100405.94
2023-03-26T01:04:04.823Z,100400.72
2023-03-26T01:06:36.434Z,100390.22
2023-03-26T01:09:34.975Z,100382.66
2023-03-26T01:12:04.648Z,100378.25
2023-03-26T01:14:31.271Z,100378.75
2023-03-26T01:17:00.674Z,100382.09
2023-03-26T01:19:50.483Z,100371.97
2023-03-26T01:22:21.012Z,100371.28
2023-03-26T01:24:53.203Z,100357.66
2023-03-26T01:27:29.907Z,100352.28
2023-03-26T01:30:24.799Z,100349.94
2023-03-26T01:33:14.323Z,100350.69
2023-03-26T01:35:50.108Z,100353.03
2023-03-26T01:38:38.778Z,100347.00
2023-03-26T01:41:09.160Z,100350.72
2023-03-26T01:43:50.488Z,100358.22
2023-03-26T01:46:19.326Z,100350.22
2023-03-26T01:48:47.369Z,100343.78
2023-03-26T01:51:25.537Z,100342.25
2023-03-26T01:53:53.966Z,100347.91
2023-03-26T01:56:36.042Z,100345.56
2023-03-26T01:59:30.522Z,100344.31
2023-03-26T02:02:09.673Z,100344.31
2023-03-26T02:04:53.090Z,100357.66
2023-03-26T02:07:34.456Z,100350.34
2023-03-26T02:10:10.428Z,100344.03
2023-03-26T02:12:37.815Z,100344.28
2023-03-26T02:15:05.743Z,100354.59
2023-03-26T02:17:32.925Z,100360.25
2023-03-26T02:19:59.340Z,100355.09
2023-03-26T02:22:29.776Z,100353.94
2023-03-26T02:24:56.240Z,100356.69
2023-03-26T02:27:22.804Z,100367.22
2023-03-26T02:29:50.283Z,100370.69
2023-03-26T02:32:19.284Z,100366.66
2023-03-26T02:34:45.817Z,100370.25
2023-03-26T02:37:12.221Z,100366.78
2023-03-26T02:39:38.688Z,100369.75
2023-03-26T02:42:05.215Z,100368.44
2023-03-26T02:44:31.727Z,100369.72
2023-03-26T02:46:58.425Z,100364.47
2023-03-26T02:49:24.839Z,100376.69
2023-03-26T02:51:56.120Z,100373.06
2023-03-26T02:54:23.291Z,100366.53
2023-03-26T02:56:49.864Z,100375.25
2023-03-26T02:59:16.358Z,100395.47
2023-03-26T03:01:43.059Z,100390.84
2023-03-26T03:04:11.292Z,100398.88
2023-03-26T03:06:38.733Z,100406.19
2023-03-26T03:09:08.494Z,100401.59
2023-03-26T03:11:35.937Z,100410.41
2023-03-26T03:14:02.847Z,100407.84
2023-03-26T03:16:31.323Z,100403.19
2023-03-26T03:18:58.486Z,100410.25
2023-03-26T03:21:27.420Z,100401.44
2023-03-26T03:23:55.536Z,100408.22
2023-03-26T03:26:27.703Z,100402.56
2023-03-26T03:28:57.460Z,100398.78
2023-03-26T03:31:25.217Z,100396.53
2023-03-26T03:33:52.407Z,100397.88
2023-03-26T03:36:27.828Z,100393.56
2023-03-26T03:38:54.358Z,100384.28
2023-03-26T03:41:20.821Z,100387.94
2023-03-26T03:43:47.234Z,100383.28
2023-03-26T03:46:13.739Z,100388.97
2023-03-26T03:48:40.213Z,100379.59
2023-03-26T03:51:06.699Z,100366.19
2023-03-26T03:53:37.185Z,100368.28
2023-03-26T03:56:04.524Z,100359.25
2023-03-26T03:58:31.088Z,100360.00
2023-03-26T04:01:00.827Z,100355.56
2023-03-26T04:03:33.376Z,100361.81
2023-03-26T04:06:01.368Z,100360.22
2023-03-26T04:08:27.933Z,100360.25
2023-03-26T04:10:54.353Z,100363.63
2023-03-26T04:13:21.296Z,100366.28
2023-03-26T04:15:47.779Z,100355.00
2023-03-26T04:18:14.249Z,100359.63
2023-03-26T04:20:46.485Z,100364.88
2023-03-26T04:23:18.643Z,100372.50
2023-03-26T04:25:48.821Z,100374.16
2023-03-26T04:28:28.202Z,100370.31
2023-03-26T04:30:57.106Z,100380.28
2023-03-26T04:33:25.027Z,100379.31
2023-03-26T04:35:52.113Z,100382.97
2023-03-26T04:38:18.719Z,100388.94
2023-03-26T04:40:47.690Z,100386.50
2023-03-26T04:43:18.474Z,100388.06
2023-03-26T04:45:48.339Z,100381.19
2023-03-26T04:48:14.775Z,100380.06
2023-03-26T04:50:45.935Z,100374.78
2023-03-26T04:53:15.848Z,100382.22
2023-03-26T04:55:49.210Z,100378.41
2023-03-26T04:58:16.197Z,100382.00
2023-03-26T05:00:43.208Z,100376.56
2023-03-26T05:03:13.350Z,100379.47
2023-03-26T05:05:40.587Z,100381.72
2023-03-26T05:08:07.148Z,100384.13
2023-03-26T05:10:33.578Z,100378.97
2023-03-26T05:13:00.096Z,100385.38
2023-03-26T05:15:26.646Z,100384.78
2023-03-26T05:17:55.424Z,100381.94
2023-03-26T05:20:26.375Z,100387.63
2023-03-26T05:22:53.598Z,100376.22
2023-03-26T05:25:20.124Z,100369.81
2023-03-26T05:27:47.367Z,100370.38
2023-03-26T05:30:19.579Z,100365.91
2023-03-26T05:32:48.789Z,100362.56
2023-03-26T05:35:19.236Z,100361.81
2023-03-26T05:37:48.028Z,100359.38
2023-03-26T05:40:16.818Z,100369.63
2023-03-26T05:42:44.093Z,100363.38
2023-03-26T05:45:13.180Z,100367.47
2023-03-26T05:47:39.660Z,100361.91
2023-03-26T05:50:07.463Z,100361.66
2023-03-26T05:52:34.068Z,100359.34
2023-03-26T05:55:00.591Z,100357.38
2023-03-26T05:57:30.142Z,100360.97
2023-03-26T05:59:56.576Z,100356.13
2023-03-26T06:02:23.752Z,100355.47
2023-03-26T06:04:50.993Z,100352.78
2023-03-26T06:07:18.062Z,100351.34
2023-03-26T06:09:45.145Z,100357.06
2023-03-26T06:12:13.199Z,100353.41
2023-03-26T06:14:42.659Z,100358.63
2023-03-26T06:17:10.246Z,100357.66
2023-03-26T06:19:36.848Z,100365.03
2023-03-26T06:22:04.278Z,100358.66
2023-03-26T06:24:32.475Z,100371.66
2023-03-26T06:26:58.964Z,100376.00
2023-03-26T06:29:25.724Z,100379.97
2023-03-26T06:31:52.361Z,100376.38
2023-03-26T06:34:24.358Z,100370.75
2023-03-26T06:37:09.534Z,100364.91
2023-03-26T06:39:36.083Z,100371.75
2023-03-26T06:42:02.729Z,100363.97
2023-03-26T06:44:29.468Z,100358.59
2023-03-26T06:46:55.988Z,100358.38
2023-03-26T06:49:22.912Z,100355.59
2023-03-26T06:51:49.716Z,100348.91
2023-03-26T06:54:16.715Z,100347.63
2023-03-26T06:56:43.237Z,100345.94
2023-03-26T06:59:10.022Z,100336.31
2023-03-26T07:01:36.552Z,100335.03
2023-03-26T07:04:03.170Z,100324.63
2023-03-26T07:06:29.622Z,100317.19
2023-03-26T07:08:57.384Z,100316.88
2023-03-26T07:11:25.548Z,100319.53
2023-03-26T07:13:52.059Z,100311.59
2023-03-26T07:16:18.542Z,100304.06
2023-03-26T07:18:45.841Z,100313.38
2023-03-26T07:21:12.921Z,100316.50
2023-03-26T07:23:39.655Z,100299.66
2023-03-26T07:26:42.789Z,100287.13
2023-03-26T07:29:14.619Z,100281.81
2023-03-26T07:32:19.174Z,100294.75
2023-03-26T07:35:13.175Z,100284.69
2023-03-26T07:38:05.926Z,100293.31
2023-03-26T07:40:38.487Z,100289.09
2023-03-26T07:43:23.687Z,100286.59
2023-03-26T07:45:50.567Z,100284.81
2023-03-26T07:48:21.232Z,100291.56
2023-03-26T07:51:37.334Z,100285.97
2023-03-26T07:54:04.296Z,100276.97
2023-03-26T07:56:58.853Z,100282.97
2023-03-26T07:59:40.234Z,100279.31
2023-03-26T08:02:44.042Z,100255.41
2023-03-26T08:05:30.383Z,100241.72
2023-03-26T08:08:16.439Z,100226.22
2023-03-26T08:10:51.834Z,100214.88
2023-03-26T08:13:21.545Z,100222.31
2023-03-26T08:16:09.903Z,100229.91
2023-03-26T08:19:04.884Z,100223.63
2023-03-26T08:21:42.180Z,100221.44
2023-03-26T08:24:25.022Z,100228.38
2023-03-26T08:27:13.453Z,100224.47
2023-03-26T08:29:49.989Z,100228.91
2023-03-26T08:32:18.600Z,100236.31
2023-03-26T08:34:46.343Z,100231.38
2023-03-26T08:37:13.582Z,100231.09
2023-03-26T08:39:41.941Z,100221.44
2023-03-26T08:42:11.352Z,100219.19
2023-03-26T08:45:01.206Z,100220.13
2023-03-26T08:48:03.357Z,100228.63
2023-03-26T08:50:54.524Z,100233.25
2023-03-26T08:53:39.520Z,100229.19
2023-03-26T08:56:58.771Z,100218.63
2023-03-26T08:59:40.232Z,100214.22
2023-03-26T09:02:32.712Z,100211.19
2023-03-26T09:05:26.634Z,100200.28
2023-03-26T09:08:23.857Z,100190.81
2023-03-26T09:11:14.203Z,100179.53
2023-03-26T09:14:17.256Z,100172.22
2023-03-26T09:17:12.835Z,100186.31
2023-03-26T09:20:15.300Z,100186.88
2023-03-26T09:22:58.995Z,100189.59
2023-03-26T09:25:56.286Z,100187.94
2023-03-26T09:28:41.812Z,100179.03
2023-03-26T09:31:17.573Z,100156.44
2023-03-26T09:34:19.231Z,100145.41
2023-03-26T09:36:45.854Z,100141.03
2023-03-26T09:39:38.769Z,100145.03
2023-03-26T09:42:28.926Z,100148.00
2023-03-26T09:44:58.116Z,100152.88
2023-03-26T09:47:31.764Z,100147.03
2023-03-26T09:50:35.772Z,100137.28
2023-03-26T09:53:39.355Z,100132.56
2023-03-26T09:56:19.408Z,100120.53
2023-03-26T09:59:25.409Z,100119.53
2023-03-26T10:02:20.299Z,100112.94
2023-03-26T10:05:05.335Z,100098.63
2023-03-26T10:07:59.944Z,100086.47
2023-03-26T10:10:51.236Z,100074.81
2023-03-26T10:13:30.669Z,100071.28
2023-03-26T10:16:24.763Z,100065.00
2023-03-26T10:19:19.158Z,100058.22
2023-03-26T10:21:57.359Z,100057.38
2023-03-26T10:24:32.842Z,100057.44
2023-03-26T10:27:36.402Z,100065.59
2023-03-26T10:30:40.261Z,100070.28
2023-03-26T10:33:40.978Z,100082.00
2023-03-26T10:36:38.375Z,100088.78
2023-03-26T10:40:02.820Z,100095.78
2023-03-26T10:42:55.869Z,100092.28
2023-03-26T10:46:03.118Z,100094.66
2023-03-26T10:48:42.006Z,100079.41
2023-03-26T10:51:51.319Z,100065.25
2023-03-26T10:54:39.711Z,100058.75
2023-03-26T10:57:36.240Z,100043.00
2023-03-26T11:00:25.255Z,100024.22
2023-03-26T11:03:27.498Z,100018.53
2023-03-26T11:06:11.222Z,100002.41
2023-03-26T11:08:56.865Z,99991.94
2023-03-26T11:11:48.697Z,100005.19
2023-03-26T11:14:34.190Z,100004.88
2023-03-26T11:17:39.374Z,100003.78
2023-03-26T11:20:20.415Z,100006.78
2023-03-26T11:23:02.198Z,100003.78
2023-03-26T11:25:40.742Z,99996.31
2023-03-26T11:28:32.147Z,99997.28
2023-03-26T11:31:02.070Z,100000.06
2023-03-26T11:33:45.541Z,100000.66
2023-03-26T11:36:21.390Z,99987.41
2023-03-26T11:38:50.321Z,99991.41
2023-03-26T11:41:22.925Z,99988.81
2023-03-26T11:44:21.920Z,99987.03
2023-03-26T11:46:52.441Z,99968.66
2023-03-26T11:49:22.325Z,99958.25
2023-03-26T11:51:49.091Z,99948.97
2023-03-26T11:54:16.387Z,99949.16
2023-03-26T11:57:05.688Z,99942.38
2023-03-26T11:59:53.305Z,99947.66
2023-03-26T12:02:29.440Z,99940.69
2023-03-26T12:05:22.601Z,99932.44
2023-03-26T12:08:00.167Z,99920.19
2023-03-26T12:10:43.014Z,99917.00
2023-03-26T12:13:36.280Z,99912.75
2023-03-26T12:16:18.845Z,99909.50
2023-03-26T12:18:57.043Z,99892.94
2023-03-26T12:21:23.547Z,99900.72
2023-03-26T12:24:02.048Z,99892.25
2023-03-26T12:26:31.839Z,99891.22
2023-03-26T12:29:06.789Z,99884.81
2023-03-26T12:31:53.518Z,99872.47
2023-03-26T12:34:22.273Z,99877.03
2023-03-26T12:36:52.137Z,99875.50
2023-03-26T12:40:09.489Z,99873.94
2023-03-26T12:44:48.416Z,99863.41
2023-03-26T12:45:31.434Z,99868.63
2023-03-26T12:48:04.035Z,99867.22
2023-03-26T12:51:09.553Z,99860.16
2023-03-26T12:53:42.311Z,99847.69
2023-03-26T12:56:09.336Z,99843.09
2023-03-26T12:58:38.408Z,99835.06
2023-03-26T13:01:34.741Z,99823.84
2023-03-26T13:04:04.457Z,99806.41
2023-03-26T13:07:00.062Z,99806.28
2023-03-26T13:10:00.227Z,99800.81
2023-03-26T13:12:32.051Z,99797.97
2023-03-26T13:15:14.213Z,99803.16
2023-03-26T13:17:49.960Z,99801.53
2023-03-26T13:20:21.519Z,99794.72
2023-03-26T13:23:51.789Z,99798.41
2023-03-26T13:26:18.750Z,99794.91
2023-03-26T13:29:19.524Z,99787.19
2023-03-26T13:32:10.406Z,99778.38
2023-03-26T13:34:44.966Z,99773.91
2023-03-26T13:37:25.499Z,99768.00
2023-03-26T13:39:58.224Z,99767.66
2023-03-26T13:42:51.451Z,99765.81
2023-03-26T13:45:51.113Z,99765.66
2023-03-26T13:48:29.359Z,99767.34
2023-03-26T13:51:12.730Z,99750.78
2023-03-26T13:53:47.314Z,99745.53
2023-03-26T13:56:20.233Z,99748.06
2023-03-26T13:58:50.148Z,99752.56
2023-03-26T14:01:36.490Z,99752.56
2023-03-26T14:04:32.908Z,99749.66
2023-03-26T14:07:23.904Z,99739.66
2023-03-26T14:10:09.600Z,99725.84
2023-03-26T14:13:07.769Z,99728.72
2023-03-26T14:15:48.014Z,99725.19
2023-03-26T14:18:43.393Z,99726.41
2023-03-26T14:21:25.650Z,99731.28
2023-03-26T14:23:52.431Z,99732.72
2023-03-26T14:26:25.354Z,99743.97
2023-03-26T14:28:51.958Z,99744.34
2023-03-26T14:31:33.399Z,99754.63
2023-03-26T14:34:29.045Z,99756.09
2023-03-26T14:37:28.064Z,99747.69
2023-03-26T14:40:26.179Z,99756.47
2023-03-26T14:43:19.201Z,99764.41
2023-03-26T14:46:04.670Z,99777.13
2023-03-26T14:48:37.359Z,99780.53
2023-03-26T14:51:22.860Z,99775.84
2023-03-26T14:54:03.103Z,99779.22
2023-03-26T14:56:39.171Z,99774.13
2023-03-26T14:59:36.487Z,99767.81
2023-03-26T15:02:40.348Z,99773.97
2023-03-26T15:05:28.256Z,99768.25
2023-03-26T15:08:39.036Z,99771.81
2023-03-26T15:11:36.771Z,99779.84
2023-03-26T15:14:40.668Z,99766.78
2023-03-26T15:17:38.791Z,99758.44
2023-03-26T15:20:35.844Z,99756.56
2023-03-26T15:23:34.722Z,99761.00
2023-03-26T15:26:30.893Z,99741.09
2023-03-26T15:29:13.718Z,99704.00
2023-03-26T15:32:11.278Z,99684.63
2023-03-26T15:35:20.173Z,99689.47
2023-03-26T15:37:52.736Z,99683.16
2023-03-26T15:41:05.072Z,99652.16
2023-03-26T15:44:23.706Z,99645.34
2023-03-26T15:46:56.070Z,99653.88
2023-03-26T15:49:49.826Z,99589.16
2023-03-26T15:52:25.289Z,99579.25
2023-03-26T15:55:26.148Z,99608.53
2023-03-26T15:58:09.139Z,99656.13
2023-03-26T16:00:47.927Z,99654.75
2023-03-26T16:03:31.458Z,99675.34
2023-03-26T16:06:06.208Z,99664.34
2023-03-26T16:09:09.616Z,99625.13
2023-03-26T16:11:56.066Z,99628.72
2023-03-26T16:14:24.061Z,99645.41
2023-03-26T16:16:58.669Z,99597.28
2023-03-26T16:19:41.243Z,99560.50
2023-03-26T16:22:15.442Z,99551.56
2023-03-26T16:24:47.600Z,99532.84
2023-03-26T16:27:13.969Z,99569.19
2023-03-26T16:30:29.157Z,99586.56
2023-03-26T16:33:04.040Z,99604.00
2023-03-26T16:35:41.780Z,99630.75
2023-03-26T16:38:18.439Z,99599.66
2023-03-26T16:41:03.450Z,99576.88
2023-03-26T16:43:38.787Z,99551.34
2023-03-26T16:46:34.386Z,99545.47
2023-03-26T16:49:10.515Z,99564.53
2023-03-26T16:51:40.304Z,99575.50
2023-03-26T16:54:24.926Z,99587.41
2023-03-26T16:57:05.123Z,99583.91
2023-03-26T17:00:06.862Z,99589.56
2023-03-26T17:02:48.930Z,99605.88
2023-03-26T17:05:19.617Z,99606.19
2023-03-26T17:08:01.404Z,99600.03
2023-03-26T17:10:35.545Z,99596.38
2023-03-26T17:13:11.368Z,99587.41
2023-03-26T17:16:04.773Z,99571.31
2023-03-26T17:18:45.576Z,99568.97
2023-03-26T17:21:18.437Z,99560.25
2023-03-26T17:24:04.153Z,99568.06
2023-03-26T17:26:43.318Z,99566.78
2023-03-26T17:29:47.096Z,99572.94
2023-03-26T17:32:15.309Z,99571.31
2023-03-26T17:34:54.085Z,99569.38
2023-03-26T17:37:23.516Z,99562.19
2023-03-26T17:39:49.993Z,99554.25
2023-03-26T17:42:33.154Z,99539.38
2023-03-26T17:45:02.741Z,99526.91
2023-03-26T17:47:45.784Z,99517.47
2023-03-26T17:50:22.684Z,99522.84
2023-03-26T17:53:01.284Z,99521.75
2023-03-26T17:55:31.371Z,99528.47
2023-03-26T17:58:01.198Z,99535.81
2023-03-26T18:00:43.120Z,99537.19
2023-03-26T18:03:24.026Z,99542.94
2023-03-26T18:05:55.838Z,99533.44
2023-03-26T18:08:47.052Z,99530.13
2023-03-26T18:11:50.777Z,99526.84
2023-03-26T18:14:39.048Z,99532.59
2023-03-26T18:17:07.103Z,99536.16
2023-03-26T18:20:06.653Z,99534.59
2023-03-26T18:22:34.084Z,99549.19
2023-03-26T18:25:02.687Z,99545.78
2023-03-26T18:27:37.171Z,99548.53
2023-03-26T18:30:19.366Z,99555.00
2023-03-26T18:33:12.278Z,99568.78
2023-03-26T18:35:46.226Z,99587.50
2023-03-26T18:38:19.297Z,99594.44
2023-03-26T18:41:03.941Z,99604.75
2023-03-26T18:43:35.138Z,99609.25
2023-03-26T18:46:03.653Z,99609.50
2023-03-26T18:48:30.560Z,99604.13
2023-03-26T18:51:04.786Z,99593.38
2023-03-26T18:53:39.409Z,99586.66
2023-03-26T18:56:24.892Z,99559.38
2023-03-26T18:58:52.191Z,99560.25
2023-03-26T19:01:25.838Z,99565.28
2023-03-26T19:03:53.679Z,99554.59
2023-03-26T19:06:21.003Z,99556.00
2023-03-26T19:08:47.951Z,99552.56
2023-03-26T19:11:17.486Z,99542.41
2023-03-26T19:13:50.033Z,99548.19
2023-03-26T19:16:22.745Z,99547.56
2023-03-26T19:18:49.843Z,99552.06
2023-03-26T19:21:18.010Z,99554.25
2023-03-26T19:23:46.828Z,99555.38
2023-03-26T19:26:14.017Z,99547.13
2023-03-26T19:28:49.086Z,99559.84
2023-03-26T19:31:15.622Z,99560.97
2023-03-26T19:33:43.937Z,99561.88
2023-03-26T19:36:13.753Z,99557.84
2023-03-26T19:38:51.558Z,99560.19
2023-03-26T19:41:33.594Z,99566.69
2023-03-26T19:44:03.104Z,99571.25
2023-03-26T19:46:34.228Z,99567.00
2023-03-26T19:49:33.628Z,99576.41
2023-03-26T19:52:38.329Z,99584.22
2023-03-26T19:55:10.147Z,99582.13
2023-03-26T19:57:37.191Z,99574.41
2023-03-26T20:00:09.245Z,99565.72
2023-03-26T20:02:35.799Z,99569.28
2023-03-26T20:05:02.458Z,99581.78
2023-03-26T20:07:35.253Z,99571.38
2023-03-26T20:10:05.604Z,99564.81
2023-03-26T20:12:32.586Z,99558.91
2023-03-26T20:14:59.309Z,99550.75
2023-03-26T20:17:26.653Z,99543.38
2023-03-26T20:19:54.261Z,99539.25
2023-03-26T20:22:20.720Z,99539.59
2023-03-26T20:24:47.897Z,99548.94
2023-03-26T20:27:14.879Z,99537.03
2023-03-26T20:29:42.238Z,99532.88
2023-03-26T20:32:26.531Z,99533.56
2023-03-26T20:34:54.044Z,99526.06
2023-03-26T20:37:20.540Z,99529.22
2023-03-26T20:39:47.030Z,99529.28
2023-03-26T20:42:15.797Z,99523.06
2023-03-26T20:44:42.822Z,99524.41
2023-03-26T20:47:12.717Z,99525.84
2023-03-26T20:49:40.273Z,99513.00
2023-03-26T20:52:06.752Z,99517.03
2023-03-26T20:54:33.270Z,99506.44
2023-03-26T20:57:00.526Z,99499.41
2023-03-26T20:59:28.329Z,99506.50
2023-03-26T21:01:57.529Z,99507.75
2023-03-26T21:04:26.084Z,99502.38
2023-03-26T21:06:57.585Z,99507.09
2023-03-26T21:09:34.082Z,99504.97
2023-03-26T21:12:08.103Z,99505.16
2023-03-26T21:14:40.902Z,99503.19
2023-03-26T21:17:14.687Z,99511.91
2023-03-26T21:19:41.428Z,99517.00
2023-03-26T21:22:29.319Z,99516.25
2023-03-26T21:25:11.593Z,99518.81
2023-03-26T21:28:03.542Z,99511.22
2023-03-26T21:30:30.404Z,99515.44
2023-03-26T21:32:56.914Z,99525.06
2023-03-26T21:35:23.836Z,99529.41
2023-03-26T21:37:50.694Z,99527.06
2023-03-26T21:40:19.029Z,99529.63
2023-03-26T21:42:48.485Z,99525.03
2023-03-26T21:45:15.678Z,99524.16
2023-03-26T21:47:44.503Z,99522.13
2023-03-26T21:50:13.720Z,99526.19
2023-03-26T21:52:47.203Z,99517.47
2023-03-26T21:55:20.054Z,99518.47
2023-03-26T21:58:19.066Z,99511.66
2023-03-26T22:01:12.980Z,99506.84
2023-03-26T22:03:48.454Z,99508.53
2023-03-26T22:06:37.592Z,99513.56
2023-03-26T22:09:04.806Z,99510.09
2023-03-26T22:11:31.334Z,99513.09
2023-03-26T22:13:57.804Z,99501.38
2023-03-26T22:16:26.928Z,99493.69
2023-03-26T22:18:53.808Z,99500.03
2023-03-26T22:21:20.556Z,99494.44
2023-03-26T22:23:52.660Z,99492.66
2023-03-26T22:26:21.731Z,99484.38
2023-03-26T22:28:48.275Z,99481.72
2023-03-26T22:31:14.856Z,99482.41
2023-03-26T22:33:42.536Z,99472.91
2023-03-26T22:36:22.792Z,99473.16
2023-03-26T22:38:53.081Z,99473.16
2023-03-26T22:41:19.589Z,99459.53
2023-03-26T22:43:46.401Z,99469.03
2023-03-26T22:46:13.672Z,99457.28
2023-03-26T22:48:40.661Z,99454.97
2023-03-26T22:51:09.107Z,99449.38
2023-03-26T22:53:36.010Z,99447.59
2023-03-26T22:56:03.938Z,99449.16
2023-03-26T22:58:30.715Z,99445.34
2023-03-26T23:01:13.840Z,99449.16
2023-03-26T23:03:40.454Z,99456.19
2023-03-26T23:06:09.819Z,99447.56
2023-03-26T23:08:38.049Z,99446.69
2023-03-26T23:11:23.317Z,99446.81
2023-03-26T23:13:50.099Z,99445.53
2023-03-26T23:16:17.327Z,99431.06
2023-03-26T23:18:44.636Z,99440.31
2023-03-26T23:21:19.872Z,99440.88
2023-03-26T23:23:47.226Z,99435.47
2023-03-26T23:26:14.826Z,99434.38
2023-03-26T23:28:41.656Z,99433.50
2023-03-26T23:31:09.828Z,99444.19
2023-03-26T23:33:38.932Z,99440.06
2023-03-26T23:36:09.049Z,99440.41
2023-03-26T23:38:43.700Z,99446.22
2023-03-26T23:41:14.803Z,99440.88
2023-03-26T23:43:54.162Z,99450.00
2023-03-26T23:46:25.450Z,99446.06
2023-03-26T23:48:52.221Z,99434.72
2023-03-26T23:51:20.110Z,99440.59
2023-03-26T23:53:47.539Z,99449.44
2023-03-26T23:56:14.033Z,99451.09
2023-03-26T23:58:40.540Z,99462.59
